ADDS METAR Data INFO
IDs: Format: Raw Decoded Include TAF

Data at: 1938 UTC 17 Feb 2018

KHHG 171915Z AUTO 19004KT 10SM BKN028 OVC110 01/M03 A2999 RMK AO2 T00071030 TSNO
KHHG 171855Z AUTO 20004KT 10SM SCT110 01/M03 A3000 RMK AO2 T00051032 TSNO
KHHG 171835Z AUTO 20005KT 10SM CLR 00/M03 A3001 RMK AO2 T00021032 TSNO
KHHG 171815Z AUTO 17005KT 10SM SCT110 00/M03 A3003 RMK AO2 T00001033 TSNO
KHHG 171755Z AUTO 18006KT 10SM SCT120 00/M04 A3005 RMK AO2 T00001036 10000 21041 TSNO
KHHG 171735Z AUTO 18006KT 10SM SCT120 00/M04 A3006 RMK AO2 T00001038 TSNO
KHHG 171715Z AUTO 17005KT 10SM BKN110 00/M04 A3008 RMK AO2 T10021038 TSNO
KHHG 171655Z AUTO 17005KT 10SM BKN120 00/M04 A3009 RMK AO2 T10051037 TSNO
KHHG 171635Z AUTO 17004KT 10SM BKN110 M01/M04 A3008 RMK AO2 T10061037 TSNO
KHHG 171615Z AUTO 17004KT 10SM OVC110 M01/M04 A3011 RMK AO2 T10071037 TSNO
KHHG 171555Z AUTO 14005KT 10SM OVC100 M01/M04 A3009 RMK AO2 T10111039 TSNO
KHHG 171535Z AUTO 16004KT 10SM OVC100 M01/M04 A3012 RMK AO2 T10131041 TSNO
KHHG 171515Z AUTO 17004KT 10SM OVC110 M01/M04 A3012 RMK AO2 T10151042 TSNO
KHHG 171455Z AUTO 17004KT 10SM SCT120 M02/M04 A3012 RMK AO2 T10191043 TSNO
KHHG 171435Z AUTO 16004KT 10SM SCT120 M02/M04 A3013 RMK AO2 T10201041 TSNO
KHHG 171415Z AUTO 15005KT 10SM CLR M02/M04 A3015 RMK AO2 T10221044 TSNO
KHHG 171355Z AUTO 14003KT 10SM CLR M02/M05 A3016 RMK AO2 T10251046 TSNO
KHHG 171335Z AUTO 00000KT 10SM CLR M03/M05 A3018 RMK AO2 T10271048 TSNO
KHHG 171315Z AUTO 16003KT 10SM CLR M03/M05 A3019 RMK AO2 T10311050 TSNO
KHHG 171255Z AUTO 00000KT 10SM CLR M03/M05 A3019 RMK AO2 T10331053 TSNO
KHHG 171235Z AUTO 00000KT 10SM SCT027 M04/M06 A3020 RMK AO2 T10381057 TSNO
KHHG 171215Z AUTO 00000KT 10SM BKN027 M04/M06 A3019 RMK AO2 T10381056 TSNO
KHHG 171155Z AUTO 00000KT 10SM SCT027 M04/M06 A3019 RMK AO2 T10401057 11027 21057 TSNO
KHHG 171135Z AUTO 17003KT 10SM CLR M04/M06 A3019 RMK AO2 T10451060 TSNO
KHHG 171115Z AUTO 17003KT 10SM CLR M05/M06 A3020 RMK AO2 T10471063 TSNO
KHHG 171055Z AUTO 00000KT 10SM CLR M05/M06 A3019 RMK AO2 T10501064 TSNO
KHHG 171035Z AUTO 00000KT 10SM CLR M05/M06 A3020 RMK AO2 T10551065 TSNO
KHHG 171015Z AUTO 00000KT 10SM CLR M05/M06 A3020 RMK AO2 T10511064 TSNO
KHHG 170955Z AUTO 00000KT 10SM CLR M05/M06 A3021 RMK AO2 T10531063 TSNO
KHHG 170935Z AUTO 00000KT 10SM CLR M05/M06 A3021 RMK AO2 T10541064 TSNO
KHHG 170915Z AUTO 00000KT 10SM CLR M05/M06 A3022 RMK AO2 T10541065 TSNO
KHHG 170855Z AUTO 00000KT 10SM CLR M04/M06 A3022 RMK AO2 T10451056 TSNO
KHHG 170835Z AUTO 00000KT 10SM CLR M04/M06 A3023 RMK AO2 T10411059 TSNO
KHHG 170815Z AUTO 00000KT 10SM CLR M04/M06 A3024 RMK AO2 T10401058 TSNO
KHHG 170755Z AUTO 00000KT 10SM CLR M04/M06 A3025 RMK AO2 T10411061 TSNO
KHHG 170735Z AUTO 00000KT 10SM CLR M04/M07 A3025 RMK AO2 T10431066 TSNO
KHHG 170715Z AUTO 27004KT 10SM CLR M04/M06 A3024 RMK AO2 T10371064 TSNO
KHHG 170655Z AUTO 29003KT 10SM CLR M04/M06 A3024 RMK AO2 T10381058 TSNO
KHHG 170635Z AUTO 00000KT 10SM CLR M04/M06 A3024 RMK AO2 T10361061 TSNO
KHHG 170615Z AUTO 00000KT 10SM CLR M03/M06 A3025 RMK AO2 T10331061 TSNO
KHHG 170555Z AUTO 00000KT 10SM CLR M03/M06 A3026 RMK AO2 T10271060 11004 21057 TSNO
KHHG 170535Z AUTO 00000KT 10SM SCT034 M03/M06 A3027 RMK AO2 T10261062 TSNO
KHHG 170515Z AUTO 18003KT 10SM OVC034 M03/M06 A3027 RMK AO2 T10261060 TSNO
KHHG 170455Z AUTO 00000KT 10SM BKN034 M03/M06 A3027 RMK AO2 T10311057 400661057 TSNO
KHHG 170435Z AUTO 00000KT 10SM BKN034 M03/M06 A3027 RMK AO2 T10321056 TSNO
KHHG 170415Z AUTO 00000KT 10SM OVC034 M03/M05 A3027 RMK AO2 T10271055 TSNO
KHHG 170355Z AUTO 00000KT 10SM OVC034 M03/M05 A3029 RMK AO2 T10271048 TSNO
KHHG 170335Z AUTO 18004KT 10SM SCT034 M06/M07 A3029 RMK AO2 T10571070 TSNO
KHHG 170315Z AUTO 00000KT 10SM CLR M04/M06 A3029 RMK AO2 T10431059 TSNO
KHHG 170255Z AUTO 00000KT 10SM CLR M04/M06 A3029 RMK AO2 T10361060 TSNO
KHHG 170235Z AUTO 00000KT 10SM CLR M04/M06 A3028 RMK AO2 T10371060 TSNO
KHHG 170215Z AUTO 00000KT 10SM CLR M03/M06 A3029 RMK AO2 T10301061 TSNO
KHHG 170155Z AUTO 00000KT 10SM CLR M03/M06 A3028 RMK AO2 T10341063 TSNO
KHHG 170135Z AUTO 00000KT 10SM CLR M03/M06 A3028 RMK AO2 T10261064 TSNO
KHHG 170115Z AUTO 00000KT 10SM CLR M02/M07 A3028 RMK AO2 T10201069 TSNO
KHHG 170055Z AUTO 00000KT 10SM CLR M02/M06 A3028 RMK AO2 T10181065 TSNO
KHHG 170035Z AUTO 00000KT 10SM BKN032 M01/M07 A3029 RMK AO2 T10101069 TSNO
KHHG 170015Z AUTO 00000KT 10SM OVC032 M01/M06 A3028 RMK AO2 T10071061 TSNO
KHHG 162355Z AUTO 34003KT 10SM OVC032 00/M06 A3027 RMK AO2 T10041061 10016 21004 TSNO
KHHG 162335Z AUTO 00000KT 10SM OVC032 00/M05 A3027 RMK AO2 T10011055 TSNO
KHHG 162315Z AUTO 34005KT 10SM OVC032 00/M05 A3027 RMK AO2 T00001054 TSNO
KHHG 162255Z AUTO 34003KT 10SM OVC032 00/M06 A3027 RMK AO2 T00001057 TSNO
KHHG 162235Z AUTO 35005KT 10SM OVC032 00/M06 A3026 RMK AO2 T00001060 TSNO
KHHG 162215Z AUTO 33007KT 10SM OVC032 00/M06 A3026 RMK AO2 T00011059 TSNO
KHHG 162155Z AUTO 33006KT 10SM OVC032 00/M06 A3026 RMK AO2 T00021056 TSNO
KHHG 162135Z AUTO 32009G15KT 280V340 10SM OVC032 01/M05 A3025 RMK AO2 T00051055 TSNO
KHHG 162115Z AUTO 34006KT 10SM OVC030 01/M06 A3024 RMK AO2 T00051057 TSNO
KHHG 162055Z AUTO 32009KT 10SM OVC030 01/M06 A3024 RMK AO2 T00051056 TSNO
KHHG 162035Z AUTO 32009KT 10SM OVC030 01/M06 A3022 RMK AO2 T00061056 TSNO
KHHG 162015Z AUTO 34011G15KT 10SM OVC028 01/M06 A3022 RMK AO2 T00061056 TSNO
KHHG 161955Z AUTO 32009G14KT 10SM OVC026 01/M05 A3020 RMK AO2 T00071048 TSNO
KHHG 161935Z AUTO 34011G16KT 10SM OVC026 01/M05 A3019 RMK AO2 T00081046 TSNO
KHHG 161915Z AUTO 32009G15KT 10SM OVC026 01/M04 A3019 RMK AO2 T00121036 TSNO
KHHG 161855Z AUTO 32011G16KT 10SM OVC026 01/M04 A3019 RMK AO2 T00141036 TSNO
KHHG 161835Z AUTO 33010G15KT 10SM OVC026 01/M04 A3017 RMK AO2 T00101038 TSNO
KHHG 161815Z AUTO 32007KT 290V350 10SM BKN026 01/M04 A3017 RMK AO2 T00111038 TSNO
KHHG 161755Z AUTO 32012G18KT 10SM OVC026 01/M04 A3017 RMK AO2 T00071041 10017 20000 TSNO
KHHG 161735Z AUTO 33012G19KT 10SM BKN024 01/M04 A3016 RMK AO2 T00121037 TSNO
KHHG 161715Z AUTO 35013G19KT 10SM BKN024 02/M04 A3015 RMK AO2 T00161040 TSNO
KHHG 161655Z AUTO 32011G19KT 10SM OVC022 01/M03 A3014 RMK AO2 T00121030 TSNO
KHHG 161635Z AUTO 34008G17KT 10SM SCT022 01/M03 A3013 RMK AO2 T00071034 TSNO
KHHG 161615Z AUTO 34015G21KT 10SM SCT022 01/M04 A3012 RMK AO2 T00071039 TSNO
KHHG 161555Z AUTO 33014G20KT 10SM SCT022 01/M04 A3011 RMK AO2 T00061036 TSNO
KHHG 161535Z AUTO 32014G22KT 10SM CLR 00/M04 A3010 RMK AO2 T00041038 TSNO
KHHG 161515Z AUTO 32013G22KT 10SM CLR 00/M04 A3008 RMK AO2 T00011040 TSNO
KHHG 161455Z AUTO 33014G22KT 10SM SCT017 00/M03 A3007 RMK AO2 T00011035 TSNO
KHHG 161435Z AUTO 32011G17KT 10SM SCT017 BKN036 00/M02 A3006 RMK AO2 T00001024 TSNO
KHHG 161415Z AUTO 33010G17KT 10SM SCT015 OVC036 00/M02 A3006 RMK AO2 T00001021 TSNO
KHHG 161355Z AUTO 34009G17KT 10SM BKN015 BKN024 OVC032 00/M02 A3004 RMK AO2 T00001020 TSNO
KHHG 161335Z AUTO 34010G17KT 10SM SCT013 SCT024 OVC032 00/M02 A3002 RMK AO2 T00001017 TSNO
KHHG 161315Z AUTO 32010G16KT 10SM BKN008 BKN013 OVC034 01/M01 A3001 RMK AO2 T00051007 TSNO
KHHG 161255Z AUTO 32011G15KT 5SM BR OVC006 01/00 A2999 RMK AO2 T00100003 TSNO
KHHG 161235Z AUTO 32009G14KT 5SM BR OVC008 01/01 A2995 RMK AO2 T00120006 TSNO
KHHG 161215Z AUTO 33009G16KT 5SM BR OVC008 02/01 A2996 RMK AO2 T00150008 TSNO
KHHG 161155Z AUTO 32009G14KT 5SM BR BKN008 OVC090 02/01 A2993 RMK AO2 7//// T00160010 10056 20016 TSNO
KHHG 161135Z AUTO 33007KT 5SM BR SCT008 OVC090 02/01 A2993 RMK AO2 T00170011 TSNO
KHHG 161115Z AUTO 33009KT 5SM BR SCT008 BKN090 02/01 A2993 RMK AO2 T00200013 TSNO
KHHG 161055Z AUTO 33008G16KT 5SM BR SCT090 SCT110 02/02 A2990 RMK AO2 T00200015 TSNO
KHHG 161035Z AUTO 32007KT 5SM BR SCT110 02/02 A2990 RMK AO2 T00220016 TSNO
KHHG 161015Z AUTO 34007KT 5SM BR CLR 02/02 A2985 RMK AO2 T00210015 TSNO
KHHG 160955Z AUTO 34006KT 5SM BR CLR 02/02 A2986 RMK AO2 T00220016 TSNO
KHHG 160935Z AUTO 33008KT 5SM BR CLR 03/02 A2986 RMK AO2 T00250019 TSNO
KHHG 160915Z AUTO 33004KT 5SM BR CLR 03/02 A2984 RMK AO2 T00260020 TSNO
KHHG 160855Z AUTO 34005KT 5SM BR CLR 03/02 A2983 RMK AO2 T00290022 TSNO
KHHG 160835Z AUTO 36005KT 7SM CLR 03/03 A2980 RMK AO2 T00310025 TSNO
KHHG 160815Z AUTO 34007KT 7SM SCT120 04/03 A2983 RMK AO2 T00350029 TSNO
KHHG 160755Z AUTO 32008KT 10SM BKN120 04/04 A2983 RMK AO2 T00400035 TSNO